Matsuto, Japan
Current Conditions -  °F | °C
As of 11:00 AM on Wednesday 26 Nov 2014 (Local Time) from RJNK Reporting Station
Rain Showers Rain Showers  
Wind Chill: 54°   Ceiling: 5000
Heat Index: 54°   Visibility: 6mi
Dew Point: 52°   Wind: 6mph
Humidity: 94%   Direction: 160°SSE
Pressure: 29.94"   Gusts: NA
Location:  36.52°N, 136.57°E
Report Text: RJNK 260200Z 16005KT 9999 -SHRA FEW015 SCT030 BKN050 12/11 Q1014
Loading
Personal Weather Stations






























Interactive Weather Map New forecast layout! Learn more

10-Day Weather Forecast

Advertisements
Track Severe Weather on mobile